Time;durP1;ratioP1;P1;durP2;ratioP2;P2;SDS_P1;SDS_P2;PMS_P1;PMS_P2;Temp;Humidity;BMP_temperature;BMP_pressure;BME280_temperature;BME280_humidity;BME280_pressure;Samples;Min_cycle;Max_cycle;Signal;HPM_P1;HPM_P2
2022/07/01 00:00:44;;;;;;;0.20;0.20;;;;;;;29.90;36.57;99317.44;1851434;76;28309;-52
2022/07/01 00:03:34;;;;;;;0.30;0.10;;;;;;;29.89;36.55;99306.10;1872189;75;28123;-53
2022/07/01 00:06:22;;;;;;;0.27;0.27;;;;;;;29.90;36.61;99309.13;1857540;75;28270;-48
2022/07/01 00:09:10;;;;;;;0.20;0.20;;;;;;;29.88;36.59;99319.67;1857856;75;28174;-49
2022/07/01 00:11:59;;;;;;;1.30;0.30;;;;;;;29.87;36.42;99307.50;1863597;76;28282;-52
2022/07/01 00:14:47;;;;;;;0.20;0.20;;;;;;;29.87;36.42;99307.50;1863496;76;28084;-52
2022/07/01 00:17:36;;;;;;;0.45;0.20;;;;;;;29.88;36.62;99304.98;1855879;76;28216;-54
2022/07/01 00:20:25;;;;;;;0.20;0.20;;;;;;;29.87;36.58;99315.23;1828035;77;28338;-50
2022/07/01 00:23:16;;;;;;;0.20;0.20;;;;;;;29.88;36.63;99313.30;1847674;75;28184;-47
2022/07/01 00:26:04;;;;;;;0.30;0.30;;;;;;;29.88;36.68;99314.13;1880145;75;28056;-52
2022/07/01 00:28:52;;;;;;;0.25;0.25;;;;;;;29.87;36.74;99334.61;1862244;75;28195;-53
2022/07/01 00:31:41;;;;;;;0.20;0.20;;;;;;;29.87;36.81;99337.38;1862875;76;28169;-53
2022/07/01 00:34:30;;;;;;;1.42;0.20;;;;;;;29.85;36.83;99323.00;1854903;75;28250;-52
2022/07/01 00:37:18;;;;;;;0.40;0.40;;;;;;;29.89;36.83;99324.10;1870184;75;28189;-52
2022/07/01 00:40:08;;;;;;;0.20;0.10;;;;;;;29.89;36.87;99343.49;1872741;75;28273;-55
2022/07/01 00:42:57;;;;;;;1.00;0.20;;;;;;;29.91;36.88;99357.88;1845987;76;28201;-50
2022/07/01 00:45:48;;;;;;;0.20;0.20;;;;;;;29.89;36.90;99357.34;1842557;76;28248;-51
2022/07/01 00:48:38;;;;;;;0.20;0.20;;;;;;;29.91;36.89;99351.50;1827854;78;28641;-53
2022/07/01 00:51:26;;;;;;;0.20;0.20;;;;;;;29.94;36.88;99342.62;1846780;76;27980;-50
2022/07/01 00:54:16;;;;;;;0.20;0.20;;;;;;;29.91;36.95;99345.96;1868630;75;28232;-50
2022/07/01 00:57:10;;;;;;;0.27;0.27;;;;;;;29.91;36.93;99344.03;1847341;76;28210;-53
2022/07/01 00:59:58;;;;;;;0.20;0.20;;;;;;;29.92;36.97;99340.13;1859739;76;31126;-51
2022/07/01 01:02:47;;;;;;;0.30;0.30;;;;;;;29.90;37.01;99340.14;1865765;74;28827;-52
2022/07/01 01:05:35;;;;;;;0.23;0.23;;;;;;;29.90;37.04;99342.91;1856464;76;28144;-53
2022/07/01 01:08:30;;;;;;;0.20;0.20;;;;;;;29.90;37.06;99352.05;1843760;76;28211;-52
2022/07/01 01:11:17;;;;;;;0.37;0.20;;;;;;;29.90;37.10;99364.52;1815837;78;28231;-52
2022/07/01 01:14:05;;;;;;;1.30;0.90;;;;;;;29.87;37.12;99360.13;1852136;76;28198;-54
2022/07/01 01:16:54;;;;;;;0.28;0.28;;;;;;;29.90;37.13;99347.06;1851350;76;28243;-49
2022/07/01 01:19:44;;;;;;;0.30;0.30;;;;;;;29.89;37.14;99332.41;1876805;75;28088;-53
2022/07/01 01:22:33;;;;;;;0.30;0.30;;;;;;;29.87;37.12;99355.97;1865955;76;28189;-54
2022/07/01 01:25:22;;;;;;;0.20;0.20;;;;;;;29.87;37.08;99377.55;1858854;76;28089;-49
2022/07/01 01:28:11;;;;;;;0.28;0.20;;;;;;;29.85;37.13;99368.70;1825738;77;28224;-52
2022/07/01 01:30:59;;;;;;;0.20;0.20;;;;;;;29.87;37.08;99369.23;1820614;77;28217;-54
2022/07/01 01:33:48;;;;;;;0.20;0.20;;;;;;;29.82;37.09;99364.30;1863296;75;28316;-51
2022/07/01 01:36:36;;;;;;;0.30;0.30;;;;;;;29.81;37.14;99373.70;1850051;76;28083;-51
2022/07/01 01:39:25;;;;;;;0.60;0.40;;;;;;;29.79;37.10;99375.39;1850671;76;28070;-51
2022/07/01 01:42:14;;;;;;;0.40;0.23;;;;;;;29.78;37.12;99372.92;1842699;77;28323;-52
2022/07/01 01:45:03;;;;;;;0.30;0.30;;;;;;;29.81;37.07;99369.00;1839066;77;28188;-53
2022/07/01 01:47:51;;;;;;;0.30;0.30;;;;;;;29.79;37.06;99368.47;1836337;77;28183;-50
2022/07/01 01:50:40;;;;;;;0.90;0.30;;;;;;;29.78;37.09;99369.56;1842866;77;28252;-53
2022/07/01 01:53:29;;;;;;;0.20;0.20;;;;;;;29.78;37.06;99386.18;1853936;77;31150;-50
2022/07/01 01:56:17;;;;;;;0.30;0.25;;;;;;;29.77;37.11;99384.54;1816956;78;28159;-51
2022/07/01 01:59:06;;;;;;;0.45;0.30;;;;;;;29.80;37.14;99365.95;1841669;76;28242;-52
2022/07/01 02:01:54;;;;;;;0.20;0.20;;;;;;;29.83;37.13;99366.77;1837710;76;28141;-53
2022/07/01 02:04:43;;;;;;;0.30;0.30;;;;;;;29.83;37.06;99367.32;1841752;76;27992;-54
2022/07/01 02:07:32;;;;;;;0.10;0.10;;;;;;;29.84;37.10;99368.44;1854047;76;28348;-48
2022/07/01 02:10:21;;;;;;;0.10;0.10;;;;;;;29.81;37.11;99370.39;1848692;77;28259;-52
2022/07/01 02:13:09;;;;;;;0.20;0.20;;;;;;;29.81;37.14;99364.02;1836973;76;28150;-53
2022/07/01 02:15:58;;;;;;;0.55;0.20;;;;;;;29.82;37.12;99367.91;1853464;76;28119;-53
2022/07/01 02:18:46;;;;;;;0.50;0.20;;;;;;;29.84;37.08;99378.13;1846518;76;28357;-51
2022/07/01 02:21:35;;;;;;;0.03;0.03;;;;;;;29.84;37.06;99386.45;1842335;76;28187;-49
2022/07/01 02:24:23;;;;;;;0.35;0.20;;;;;;;29.81;37.11;99374.55;1845080;77;28215;-51
2022/07/01 02:27:12;;;;;;;0.20;0.20;;;;;;;29.78;37.11;99369.56;1853252;76;28125;-52
2022/07/01 02:30:00;;;;;;;0.20;0.15;;;;;;;29.82;37.15;99364.30;1850916;77;28231;-52
2022/07/01 02:32:49;;;;;;;0.30;0.30;;;;;;;29.83;37.13;99370.92;1840944;77;28165;-50
2022/07/01 02:35:39;;;;;;;0.20;0.20;;;;;;;29.83;37.10;99374.25;1859496;75;28228;-52
2022/07/01 02:38:28;;;;;;;0.30;0.30;;;;;;;29.80;37.15;99385.34;1847897;76;28285;-51
2022/07/01 02:41:16;;;;;;;0.50;0.20;;;;;;;29.80;37.13;99371.48;1835257;76;28258;-51
2022/07/01 02:44:05;;;;;;;0.20;0.20;;;;;;;29.77;37.20;99354.63;1856221;75;28278;-50
2022/07/01 02:46:53;;;;;;;0.10;0.10;;;;;;;29.81;37.14;99349.62;1840177;76;28224;-51
2022/07/01 02:49:42;;;;;;;0.10;0.10;;;;;;;29.80;37.11;99350.72;1859739;75;28180;-53
2022/07/01 02:52:30;;;;;;;0.10;0.10;;;;;;;29.82;37.13;99347.69;1873887;75;28332;-50
2022/07/01 02:55:18;;;;;;;0.20;0.20;;;;;;;29.84;37.12;99350.99;1864002;76;28204;-48
2022/07/01 02:58:07;;;;;;;0.25;0.25;;;;;;;29.82;37.16;99349.91;1839089;76;28188;-53
2022/07/01 03:00:56;;;;;;;0.30;0.30;;;;;;;29.83;37.16;99358.47;1853952;76;28189;-49
2022/07/01 03:03:44;;;;;;;0.20;0.20;;;;;;;29.83;37.12;99375.08;1868517;75;28270;-52
2022/07/01 03:06:33;;;;;;;0.57;0.20;;;;;;;29.82;37.13;99391.44;1863418;76;28282;-52
2022/07/01 03:09:21;;;;;;;0.40;0.20;;;;;;;29.83;37.16;99376.47;1825877;77;28257;-50
2022/07/01 03:12:25;;;;;;;0.70;0.20;;;;;;;29.84;37.13;99373.98;1868679;75;28134;-54
2022/07/01 03:15:16;;;;;;;0.20;0.20;;;;;;;29.82;37.17;99370.67;1861879;76;28133;-49
2022/07/01 03:18:05;;;;;;;0.25;0.13;;;;;;;29.80;37.19;99371.48;1853146;75;28146;-54
2022/07/01 03:20:53;;;;;;;0.10;0.10;;;;;;;29.78;37.21;99382.02;1858247;75;28203;-52
2022/07/01 03:23:42;;;;;;;0.10;0.10;;;;;;;29.79;37.22;99365.70;1863341;76;30175;-51
2022/07/01 03:26:29;;;;;;;0.23;0.23;;;;;;;29.80;37.20;99348.53;1860101;75;28025;-51
2022/07/01 03:29:18;;;;;;;0.10;0.10;;;;;;;29.81;37.19;99346.84;1876034;75;28271;-51
2022/07/01 03:32:09;;;;;;;0.20;0.20;;;;;;;29.81;37.21;99355.70;1831264;77;28387;-52
2022/07/01 03:34:57;;;;;;;0.60;0.20;;;;;;;29.81;37.19;99346.84;1863483;75;28203;-54
2022/07/01 03:37:45;;;;;;;0.30;0.30;;;;;;;29.79;37.24;99350.47;1857623;75;28214;-51
2022/07/01 03:40:34;;;;;;;1.30;0.30;;;;;;;29.82;37.24;99349.91;1862600;76;28370;-52
2022/07/01 03:43:22;;;;;;;0.20;0.20;;;;;;;29.82;37.25;99340.77;1859227;76;28155;-54
2022/07/01 03:46:12;;;;;;;1.30;0.20;;;;;;;29.79;37.27;99331.63;1835103;77;28193;-52
2022/07/01 03:49:00;;;;;;;0.20;0.20;;;;;;;29.79;37.29;99344.92;1847695;76;28073;-51
2022/07/01 03:51:49;;;;;;;0.23;0.23;;;;;;;29.79;37.27;99324.70;1850208;76;28185;-53
2022/07/01 03:54:38;;;;;;;0.10;0.10;;;;;;;29.78;37.27;99298.95;1845731;77;28177;-49
2022/07/01 03:57:26;;;;;;;0.20;0.20;;;;;;;29.78;37.29;99293.41;1850430;76;38473;-54
2022/07/01 04:00:15;;;;;;;0.20;0.20;;;;;;;29.77;37.36;99315.31;1851913;76;28270;-54
2022/07/01 04:03:08;;;;;;;0.20;0.20;;;;;;;29.80;37.25;99320.84;1847957;75;28238;-53
2022/07/01 04:05:56;;;;;;;0.20;0.20;;;;;;;29.80;37.34;99294.53;1844394;77;28608;-52
2022/07/01 04:08:44;;;;;;;0.90;0.17;;;;;;;29.80;37.27;99284.26;1865651;76;28189;-49
2022/07/01 04:11:33;;;;;;;0.30;0.30;;;;;;;29.81;37.30;99299.77;1850229;76;28245;-51
2022/07/01 04:14:24;;;;;;;0.20;0.20;;;;;;;29.81;37.30;99333.55;1849044;76;28130;-52
2022/07/01 04:17:12;;;;;;;0.20;0.20;;;;;;;29.80;37.28;99333.30;1854064;76;28655;-49
2022/07/01 04:20:01;;;;;;;0.20;0.20;;;;;;;29.82;37.30;99333.29;1854267;76;28181;-52
2022/07/01 04:22:49;;;;;;;0.20;0.15;;;;;;;29.81;37.29;99312.78;1868702;76;28204;-51
2022/07/01 04:25:38;;;;;;;0.30;0.10;;;;;;;29.77;37.37;99291.78;1833243;77;28255;-49
2022/07/01 04:28:26;;;;;;;0.25;0.25;;;;;;;29.77;37.40;99287.63;1860433;76;28059;-51
2022/07/01 04:31:15;;;;;;;0.70;0.10;;;;;;;29.80;37.37;99331.34;1850513;77;28650;-53
2022/07/01 04:34:04;;;;;;;0.50;0.20;;;;;;;29.80;37.37;99351.30;1832154;77;28242;-50
2022/07/01 04:36:53;;;;;;;0.20;0.20;;;;;;;29.81;37.35;99352.39;1855714;76;28138;-53
2022/07/01 04:39:41;;;;;;;0.10;0.10;;;;;;;29.79;37.39;99320.55;1871889;75;28207;-50
2022/07/01 04:42:29;;;;;;;0.30;0.20;;;;;;;29.78;37.42;99279.57;1852700;76;28604;-51
2022/07/01 04:45:18;;;;;;;0.10;0.10;;;;;;;29.75;37.44;99275.98;1885609;75;28112;-51
2022/07/01 04:48:07;;;;;;;0.70;0.30;;;;;;;29.76;37.42;99287.34;1876934;75;38449;-50
2022/07/01 04:50:55;;;;;;;0.20;0.20;;;;;;;29.76;37.46;99276.27;1874692;76;28184;-50
2022/07/01 04:53:43;;;;;;;0.25;0.25;;;;;;;29.77;37.46;99302.85;1881705;75;28190;-48
2022/07/01 04:56:33;;;;;;;0.20;0.20;;;;;;;29.77;37.43;99312.55;1876191;75;27992;-51
2022/07/01 04:59:22;;;;;;;0.30;0.17;;;;;;;29.80;37.43;99307.80;1880961;75;28442;-47
2022/07/01 05:02:10;;;;;;;0.10;0.10;;;;;;;29.79;37.40;99309.48;1887880;75;28156;-50
2022/07/01 05:04:59;;;;;;;0.10;0.10;;;;;;;29.76;37.46;99308.11;1870833;76;28173;-53
2022/07/01 05:07:47;;;;;;;0.10;0.10;;;;;;;29.74;37.49;99311.70;1850395;76;28115;-51
2022/07/01 05:10:36;;;;;;;0.10;0.10;;;;;;;29.75;37.49;99309.76;1872196;76;28215;-54
2022/07/01 05:13:24;;;;;;;0.20;0.20;;;;;;;29.76;37.50;99304.51;1884350;75;28165;-54
2022/07/01 05:16:13;;;;;;;0.13;0.13;;;;;;;29.75;37.55;99295.91;1880493;75;28300;-51
2022/07/01 05:22:09;;;;;;;0.20;0.20;;;;;;;29.73;37.54;99296.77;1849042;76;28204;-52
2022/07/01 05:24:58;;;;;;;0.33;0.30;;;;;;;29.67;37.59;99286.81;1873630;75;28598;-55
2022/07/01 05:27:46;;;;;;;0.10;0.10;;;;;;;29.63;37.53;99276.05;1870538;76;28062;-54
2022/07/01 05:30:35;;;;;;;0.20;0.20;;;;;;;29.65;37.59;99289.88;1873274;76;28137;-51
2022/07/01 05:33:26;;;;;;;0.20;0.20;;;;;;;29.65;37.46;99291.27;1884596;75;28251;-49
2022/07/01 05:36:14;;;;;;;0.20;0.10;;;;;;;29.63;37.50;99289.34;1862759;76;28152;-51
2022/07/01 05:39:04;;;;;;;0.13;0.13;;;;;;;29.62;37.50;99284.91;1883255;75;28216;-53
2022/07/01 05:41:52;;;;;;;0.10;0.10;;;;;;;29.62;37.50;99293.77;1858002;76;28137;-52
2022/07/01 05:44:40;;;;;;;0.10;0.10;;;;;;;29.61;37.39;99302.65;1871226;76;28272;-54
2022/07/01 05:47:29;;;;;;;0.20;0.20;;;;;;;29.61;37.38;99308.73;1871680;76;28204;-52
2022/07/01 05:50:17;;;;;;;0.20;0.20;;;;;;;29.56;37.37;99310.97;1874128;76;27967;-50
2022/07/01 05:53:06;;;;;;;0.10;0.10;;;;;;;29.60;37.42;99307.90;1858677;76;28033;-54
2022/07/01 05:55:54;;;;;;;0.20;0.20;;;;;;;29.58;37.41;99303.76;1878111;75;28048;-51
2022/07/01 05:58:43;;;;;;;0.28;0.20;;;;;;;29.61;37.41;99305.97;1865190;76;28601;-51
2022/07/01 06:01:31;;;;;;;0.10;0.10;;;;;;;29.58;37.42;99303.20;1868209;75;28198;-52
2022/07/01 06:04:19;;;;;;;0.13;0.13;;;;;;;29.62;37.37;99303.45;1879204;74;28192;-48
2022/07/01 06:07:07;;;;;;;0.20;0.20;;;;;;;29.63;37.31;99308.72;1879265;75;28167;-52
2022/07/01 06:09:57;;;;;;;0.20;0.10;;;;;;;29.62;37.34;99301.52;1860175;76;28178;-47
2022/07/01 06:12:45;;;;;;;0.10;0.10;;;;;;;29.67;37.26;99297.89;1846756;76;28235;-51
2022/07/01 06:15:34;;;;;;;0.20;0.20;;;;;;;29.69;37.22;99304.80;1873980;75;28173;-52
2022/07/01 06:18:23;;;;;;;0.10;0.10;;;;;;;29.63;37.24;99310.11;1875679;75;31031;-51
2022/07/01 06:21:12;;;;;;;0.35;0.20;;;;;;;29.65;37.28;99311.20;1868764;75;27992;-48
2022/07/01 06:24:00;;;;;;;0.10;0.10;;;;;;;29.66;37.22;99308.16;1865506;76;28772;-50
2022/07/01 06:26:48;;;;;;;0.20;0.20;;;;;;;29.67;37.21;99306.19;1872749;76;31169;-50
2022/07/01 06:29:36;;;;;;;0.17;0.17;;;;;;;29.67;37.18;99310.34;1877660;75;28153;-51
2022/07/01 06:32:25;;;;;;;0.10;0.10;;;;;;;29.67;37.25;99321.42;1857432;75;28189;-52
2022/07/01 06:35:13;;;;;;;0.70;0.25;;;;;;;29.66;37.28;99321.17;1880533;75;28056;-50
2022/07/01 06:38:01;;;;;;;0.10;0.10;;;;;;;29.65;37.29;99325.88;1875290;75;28145;-50
2022/07/01 06:43:58;;;;;;;0.10;0.10;;;;;;;29.66;37.31;99333.08;1818905;77;31237;-53
2022/07/01 06:46:47;;;;;;;0.20;0.20;;;;;;;29.63;37.37;99333.64;1817839;77;28335;-51
2022/07/01 06:49:36;;;;;;;0.20;0.20;;;;;;;29.64;37.37;99340.01;1858593;76;28251;-53
2022/07/01 06:52:25;;;;;;;0.17;0.17;;;;;;;29.61;37.39;99337.80;1874330;75;28069;-52
2022/07/01 06:55:13;;;;;;;0.10;0.10;;;;;;;29.60;37.43;99339.73;1842942;76;28207;-52
2022/07/01 06:58:04;;;;;;;0.10;0.10;;;;;;;29.60;37.39;99342.50;1865496;75;28166;-50
2022/07/01 07:00:51;;;;;;;0.10;0.10;;;;;;;29.63;37.41;99343.88;1856004;76;28500;-53
2022/07/01 07:03:40;;;;;;;1.40;0.30;;;;;;;29.56;37.49;99348.34;1867398;75;27751;-51
2022/07/01 07:06:29;;;;;;;0.30;0.30;;;;;;;29.59;37.51;99353.32;1837942;76;28196;-50
2022/07/01 07:09:17;;;;;;;0.37;0.20;;;;;;;29.62;37.46;99340.27;1867654;75;28195;-52
2022/07/01 07:12:07;;;;;;;0.55;0.30;;;;;;;29.62;37.43;99352.73;1854216;75;28130;-50
2022/07/01 07:14:55;;;;;;;0.20;0.20;;;;;;;29.59;37.52;99363.02;1864749;75;28167;-51
2022/07/01 07:17:44;;;;;;;0.95;0.30;;;;;;;29.59;37.47;99358.02;1865893;76;28180;-53
2022/07/01 07:20:33;;;;;;;0.20;0.20;;;;;;;29.62;37.42;99354.11;1875855;75;28257;-52
2022/07/01 07:23:22;;;;;;;0.23;0.20;;;;;;;29.62;37.41;99362.42;1820906;77;28282;-53
2022/07/01 07:26:12;;;;;;;0.10;0.10;;;;;;;29.62;37.50;99362.42;1872413;75;28255;-52
2022/07/01 07:29:00;;;;;;;0.25;0.25;;;;;;;29.61;37.48;99371.02;1860884;76;28275;-50
2022/07/01 07:31:48;;;;;;;0.20;0.20;;;;;;;29.60;37.51;99372.12;1832014;77;28305;-51
2022/07/01 07:34:37;;;;;;;0.30;0.30;;;;;;;29.63;37.44;99374.33;1867054;76;28121;-52
2022/07/01 07:37:25;;;;;;;0.60;0.15;;;;;;;29.61;37.56;99376.02;1869431;76;28235;-54
2022/07/01 07:40:18;;;;;;;0.37;0.37;;;;;;;29.62;37.68;99380.42;1860730;76;28126;-51
2022/07/01 07:43:07;;;;;;;0.10;0.10;;;;;;;29.60;37.82;99380.42;1876242;75;31118;-53
2022/07/01 07:45:54;;;;;;;0.40;0.10;;;;;;;29.58;37.97;99383.48;1848413;76;28324;-46
2022/07/01 07:48:43;;;;;;;0.65;0.20;;;;;;;29.57;38.02;99381.81;1865878;74;28341;-53
2022/07/01 07:51:31;;;;;;;0.42;0.30;;;;;;;29.52;38.22;99383.80;1855953;75;28073;-54
2022/07/01 07:54:20;;;;;;;0.20;0.20;;;;;;;29.60;38.11;99392.33;1869464;75;28203;-55
2022/07/01 07:57:08;;;;;;;0.67;0.63;;;;;;;29.60;38.25;99382.64;1864080;75;28199;-46
2022/07/01 07:59:57;;;;;;;0.60;0.60;;;;;;;29.58;38.58;99390.41;1863654;75;28226;-46
2022/07/01 08:02:45;;;;;;;1.98;1.00;;;;;;;29.59;38.53;99399.00;1859061;75;28304;-48
2022/07/01 08:05:34;;;;;;;1.60;1.00;;;;;;;29.62;38.53;99401.18;1844261;76;28260;-51
2022/07/01 08:08:23;;;;;;;2.80;1.32;;;;;;;29.58;38.65;99383.48;1867908;76;28205;-51
2022/07/01 08:11:11;;;;;;;2.15;1.10;;;;;;;29.66;38.77;99400.91;1814297;77;28499;-49
2022/07/01 08:14:00;;;;;;;0.90;0.90;;;;;;;29.70;38.89;99397.84;1799662;77;28294;-54
2022/07/01 08:16:48;;;;;;;2.92;0.93;;;;;;;29.71;38.78;99409.16;1799158;78;28321;-51
2022/07/01 08:19:37;;;;;;;1.50;0.65;;;;;;;29.71;38.92;99406.39;1791548;79;28536;-56
2022/07/01 08:22:26;;;;;;;1.55;0.62;;;;;;;29.72;38.91;99404.46;1788202;79;28449;-54
2022/07/01 08:25:14;;;;;;;1.07;0.73;;;;;;;29.71;38.94;99409.16;1783619;79;28359;-53
2022/07/01 08:28:03;;;;;;;2.30;0.75;;;;;;;29.70;38.97;99407.52;1844842;76;28206;-58
2022/07/01 08:30:51;;;;;;;2.00;0.70;;;;;;;29.69;39.15;99421.08;1866994;76;28368;-54
2022/07/01 08:33:41;;;;;;;0.50;0.50;;;;;;;29.69;39.23;99416.09;1863051;75;28206;-56
2022/07/01 08:36:29;;;;;;;0.60;0.60;;;;;;;29.67;39.35;99416.39;1845378;76;28193;-56
2022/07/01 08:39:17;;;;;;;2.10;0.42;;;;;;;29.73;39.07;99416.66;1861603;75;28357;-55
2022/07/01 08:42:08;;;;;;;0.55;0.40;;;;;;;29.73;38.82;99415.27;1800237;76;28746;-55
2022/07/01 08:44:57;;;;;;;1.00;0.50;;;;;;;29.74;38.65;99418.30;1817739;78;28282;-54
2022/07/01 08:47:54;;;;;;;0.55;0.55;;;;;;;29.74;38.54;99413.31;1813500;78;28398;-52
2022/07/01 08:50:43;;;;;;;1.22;0.53;;;;;;;29.75;38.46;99410.28;1822422;78;28189;-54
2022/07/01 08:53:32;;;;;;;0.70;0.50;;;;;;;29.75;38.43;99417.20;1762229;80;28384;-52
2022/07/01 08:59:28;;;;;;;0.88;0.70;;;;;;;29.77;38.54;99420.54;1765449;80;28345;-52
2022/07/01 09:02:17;;;;;;;0.72;0.50;;;;;;;29.73;38.74;99423.58;1769824;80;28320;-56
2022/07/01 09:05:10;;;;;;;1.10;0.53;;;;;;;29.75;38.73;99430.21;1769998;80;32351;-53
2022/07/01 09:08:01;;;;;;;0.83;0.53;;;;;;;29.74;38.80;99421.06;1769727;80;28412;-54
2022/07/01 09:10:49;;;;;;;0.50;0.50;;;;;;;29.75;38.81;99429.66;1814783;78;28318;-54
2022/07/01 09:13:38;;;;;;;0.50;0.47;;;;;;;29.75;38.83;99428.27;1813123;78;28383;-55
2022/07/01 09:16:26;;;;;;;1.30;0.50;;;;;;;29.75;38.85;99429.66;1782587;78;28220;-55
2022/07/01 09:19:16;;;;;;;2.00;0.50;;;;;;;29.75;38.81;99424.67;1791917;78;28329;-55
2022/07/01 09:22:06;;;;;;;0.90;0.70;;;;;;;29.75;38.80;99428.27;1790307;79;28354;-54
2022/07/01 09:24:54;;;;;;;0.70;0.40;;;;;;;29.74;38.76;99427.98;1760909;80;28300;-55
2022/07/01 09:27:42;;;;;;;0.37;0.30;;;;;;;29.76;38.75;99431.88;1769777;80;28360;-53
2022/07/01 09:30:32;;;;;;;0.40;0.40;;;;;;;29.75;38.65;99438.52;1788346;79;28322;-53
2022/07/01 09:33:25;;;;;;;0.50;0.50;;;;;;;29.74;38.69;99435.46;1802901;78;28330;-53
2022/07/01 09:36:17;;;;;;;1.20;0.70;;;;;;;29.73;38.63;99437.42;1821658;77;28294;-53
2022/07/01 09:39:06;;;;;;;0.87;0.60;;;;;;;29.73;38.60;99429.12;1833552;77;28203;-53
2022/07/01 09:41:58;;;;;;;0.33;0.33;;;;;;;29.73;38.57;99427.73;1873633;75;28173;-54
2022/07/01 09:44:59;;;;;;;1.25;0.42;;;;;;;29.75;38.54;99435.75;1866081;75;28271;-56
2022/07/01 09:47:49;;;;;;;0.80;0.50;;;;;;;29.75;38.48;99439.91;1860677;76;28236;-52
2022/07/01 09:50:38;;;;;;;0.50;0.42;;;;;;;29.72;38.50;99437.14;1835818;77;28231;-53
2022/07/01 09:53:27;;;;;;;0.30;0.30;;;;;;;29.73;38.50;99440.75;1825472;78;28142;-54
2022/07/01 09:56:16;;;;;;;0.50;0.33;;;;;;;29.73;38.45;99438.81;1831290;77;28121;-55
2022/07/01 09:59:05;;;;;;;0.40;0.40;;;;;;;29.75;38.43;99439.35;1856921;77;28225;-57
2022/07/01 10:01:53;;;;;;;0.62;0.40;;;;;;;29.74;38.43;99441.83;1868573;76;28254;-54
2022/07/01 10:04:44;;;;;;;1.02;0.42;;;;;;;29.73;38.42;99445.73;1834751;77;28123;-53
2022/07/01 10:07:59;;;;;;;0.57;0.42;;;;;;;29.73;38.37;99440.20;1865049;76;28236;-55
2022/07/01 10:11:05;;;;;;;0.55;0.30;;;;;;;29.74;38.33;99443.22;1868716;76;28141;-52
2022/07/01 10:13:55;;;;;;;1.10;0.30;;;;;;;29.70;38.43;99449.61;1868692;76;28184;-54
2022/07/01 10:16:52;;;;;;;0.50;0.50;;;;;;;29.69;38.44;99446.55;1856703;77;28177;-56
2022/07/01 10:19:36;;;;;;;0.70;0.40;;;;;;;29.70;38.37;99450.99;1856954;77;28040;-55
2022/07/01 10:22:28;;;;;;;0.70;0.40;;;;;;;29.72;38.36;99452.92;1836852;77;28129;-55
2022/07/01 10:25:34;;;;;;;0.60;0.40;;;;;;;29.73;38.31;99447.12;1864439;76;28105;-56
2022/07/01 10:28:28;;;;;;;0.70;0.40;;;;;;;29.73;38.30;99457.36;1856672;77;28271;-53
2022/07/01 10:31:18;;;;;;;0.35;0.35;;;;;;;29.72;38.30;99452.92;1868663;76;28074;-52
2022/07/01 10:34:07;;;;;;;0.70;0.45;;;;;;;29.72;38.30;99444.61;1856734;77;28037;-55
2022/07/01 10:37:04;;;;;;;0.50;0.50;;;;;;;29.73;38.27;99454.59;1825395;78;28196;-53
2022/07/01 10:39:58;;;;;;;0.43;0.43;;;;;;;29.74;38.22;99453.46;1853555;77;28169;-55
2022/07/01 10:43:00;;;;;;;0.42;0.42;;;;;;;29.73;38.25;99452.66;1856850;77;28059;-53
2022/07/01 10:45:48;;;;;;;1.02;0.30;;;;;;;29.72;38.21;99457.91;1856891;77;28064;-54
2022/07/01 10:48:36;;;;;;;1.15;0.30;;;;;;;29.71;38.23;99452.08;1868505;76;28016;-53
2022/07/01 10:51:49;;;;;;;1.10;0.40;;;;;;;29.70;38.21;99440.75;1856719;77;28027;-51
2022/07/01 10:54:40;;;;;;;0.30;0.30;;;;;;;29.75;38.22;99445.44;1770007;79;28506;-54
2022/07/01 10:57:36;;;;;;;0.65;0.50;;;;;;;29.72;38.25;99445.45;1835329;77;28275;-51
2022/07/01 11:00:31;;;;;;;0.57;0.57;;;;;;;29.72;38.20;99444.61;1857105;76;28270;-50
2022/07/01 11:03:21;;;;;;;0.30;0.30;;;;;;;29.70;38.19;99436.59;1876882;75;28063;-54
2022/07/01 11:06:09;;;;;;;0.40;0.40;;;;;;;29.70;38.16;99437.98;1835755;75;27992;-55
2022/07/01 11:08:59;;;;;;;0.47;0.47;;;;;;;29.70;38.16;99429.67;1868562;76;28497;-53
2022/07/01 11:11:47;;;;;;;0.30;0.30;;;;;;;29.72;38.11;99434.38;1856756;77;28008;-56
2022/07/01 11:14:41;;;;;;;0.85;0.40;;;;;;;29.75;38.09;99432.98;1837236;77;28234;-54
2022/07/01 11:17:30;;;;;;;0.40;0.40;;;;;;;29.74;38.04;99429.37;1834738;77;28081;-54
2022/07/01 11:20:18;;;;;;;0.40;0.25;;;;;;;29.74;38.04;99430.76;1868539;75;28137;-57
2022/07/01 11:23:06;;;;;;;0.42;0.42;;;;;;;29.73;38.01;99429.12;1856884;75;28139;-56
2022/07/01 11:25:55;;;;;;;1.60;0.50;;;;;;;29.75;38.01;99429.66;1837519;77;28254;-55
2022/07/01 11:28:43;;;;;;;0.40;0.40;;;;;;;29.77;37.94;99422.47;1837045;77;28289;-56
2022/07/01 11:31:33;;;;;;;0.40;0.40;;;;;;;29.76;37.96;99423.58;1860768;76;27984;-55
2022/07/01 11:34:22;;;;;;;0.95;0.30;;;;;;;29.74;38.00;99425.77;1856953;77;28154;-56
2022/07/01 11:40:19;;;;;;;0.50;0.40;;;;;;;29.75;37.90;99431.05;1832673;77;28768;-54
2022/07/01 11:43:28;;;;;;;1.40;0.50;;;;;;;29.71;37.95;99428.55;1868641;76;28237;-57
2022/07/01 11:46:17;;;;;;;0.30;0.30;;;;;;;29.72;37.92;99426.06;1875030;76;28368;-54
2022/07/01 11:49:13;;;;;;;0.30;0.30;;;;;;;29.70;37.94;99421.92;1878047;76;28047;-55
2022/07/01 11:52:10;;;;;;;0.40;0.40;;;;;;;29.70;37.94;99419.98;1845567;77;28137;-53
2022/07/01 11:55:02;;;;;;;0.40;0.37;;;;;;;29.72;37.87;99417.76;1845610;77;28153;-56
2022/07/01 11:57:47;;;;;;;0.40;0.40;;;;;;;29.72;37.86;99423.30;1874168;76;28691;-55
2022/07/01 12:00:36;;;;;;;0.47;0.43;;;;;;;29.73;37.88;99419.42;1878166;76;28000;-56
2022/07/01 12:03:32;;;;;;;0.30;0.30;;;;;;;29.75;37.88;99416.36;1878050;76;28133;-53
2022/07/01 12:06:23;;;;;;;0.30;0.30;;;;;;;29.77;37.84;99414.17;1845678;77;28270;-56
2022/07/01 12:09:20;;;;;;;0.47;0.37;;;;;;;29.77;37.86;99415.00;1875356;76;28171;-54
2022/07/01 12:12:17;;;;;;;0.30;0.30;;;;;;;29.77;37.87;99415.00;1878230;76;28014;-52
2022/07/01 12:15:06;;;;;;;0.40;0.40;;;;;;;29.75;37.88;99410.28;1878154;76;28189;-54
2022/07/01 12:18:07;;;;;;;0.30;0.30;;;;;;;29.76;37.87;99412.50;1878141;76;28165;-54
2022/07/01 12:20:55;;;;;;;0.40;0.40;;;;;;;29.77;37.87;99403.92;1859761;76;28239;-57
2022/07/01 12:23:43;;;;;;;0.70;0.40;;;;;;;29.78;37.91;99404.77;1878241;76;28000;-55
2022/07/01 12:26:31;;;;;;;0.40;0.40;;;;;;;29.79;37.88;99403.62;1878035;76;28196;-55
2022/07/01 12:29:22;;;;;;;0.90;0.40;;;;;;;29.79;37.88;99403.08;1878310;76;28176;-52
2022/07/01 12:32:13;;;;;;;0.40;0.40;;;;;;;29.81;37.89;99404.17;1858766;76;28301;-53
2022/07/01 12:35:04;;;;;;;0.70;0.40;;;;;;;29.80;37.89;99395.03;1878185;76;38634;-54
2022/07/01 12:37:53;;;;;;;0.30;0.30;;;;;;;29.81;37.87;99393.09;1878135;76;27987;-55
2022/07/01 12:40:41;;;;;;;0.30;0.30;;;;;;;29.80;37.89;99383.14;1878058;76;27985;-56
2022/07/01 12:43:37;;;;;;;0.40;0.40;;;;;;;29.82;37.86;99372.61;1845796;77;28184;-55
2022/07/01 12:46:30;;;;;;;0.40;0.40;;;;;;;29.81;37.88;99364.02;1869309;76;28185;-55
2022/07/01 12:49:24;;;;;;;0.40;0.40;;;;;;;29.83;37.82;99363.17;1868941;76;28755;-50
2022/07/01 12:52:29;;;;;;;0.60;0.40;;;;;;;29.81;37.81;99366.23;1868907;76;28052;-55
2022/07/01 12:55:25;;;;;;;0.40;0.40;;;;;;;29.80;37.86;99360.41;1836673;77;28197;-55
2022/07/01 12:58:15;;;;;;;0.62;0.45;;;;;;;29.81;37.88;99372.33;1837158;77;38579;-55
2022/07/01 13:01:04;;;;;;;0.30;0.30;;;;;;;29.82;37.84;99360.98;1865277;76;28133;-55
2022/07/01 13:03:52;;;;;;;0.40;0.33;;;;;;;29.82;37.80;99363.75;1868992;74;28636;-55
2022/07/01 13:06:40;;;;;;;0.35;0.30;;;;;;;29.83;37.85;99363.17;1868884;76;28036;-54
2022/07/01 13:09:29;;;;;;;0.28;0.28;;;;;;;29.81;37.85;99358.48;1868870;76;28247;-55
2022/07/01 13:12:17;;;;;;;0.40;0.40;;;;;;;29.79;37.87;99364.31;1868737;76;28886;-52
2022/07/01 13:15:07;;;;;;;0.47;0.47;;;;;;;29.78;37.86;99365.99;1868743;76;28001;-55
2022/07/01 13:17:55;;;;;;;0.30;0.30;;;;;;;29.80;37.85;99366.53;1850348;76;28076;-55
2022/07/01 13:20:46;;;;;;;0.30;0.30;;;;;;;29.79;37.86;99364.86;1868851;76;28078;-57
2022/07/01 13:23:34;;;;;;;0.30;0.30;;;;;;;29.80;37.83;99363.18;1868863;76;27996;-54
2022/07/01 13:26:22;;;;;;;0.40;0.40;;;;;;;29.79;37.83;99362.92;1868988;76;28204;-54
2022/07/01 13:29:11;;;;;;;0.50;0.50;;;;;;;29.83;37.84;99361.78;1852010;76;28172;-57
2022/07/01 13:31:59;;;;;;;0.33;0.33;;;;;;;29.82;37.80;99362.91;1869039;76;38528;-55